Time;durP1;ratioP1;P1;durP2;ratioP2;P2;SDS_P1;SDS_P2;PMS_P1;PMS_P2;Temp;Humidity;BMP_temperature;BMP_pressure;BME280_temperature;BME280_humidity;BME280_pressure;Samples;Min_cycle;Max_cycle;Signal;HPM_P1;HPM_P2
2021/10/24 00:00:04;;;;;;;9.45;3.20;;;9.20;99.90;;;;;;6183885;23;20039;-83
2021/10/24 00:02:30;;;;;;;8.32;3.35;;;9.20;99.90;;;;;;6183791;23;20032;-83
2021/10/24 00:04:56;;;;;;;11.10;3.40;;;9.20;99.90;;;;;;6182087;23;20005;-83
2021/10/24 00:07:22;;;;;;;6.78;3.33;;;9.20;99.90;;;;;;6183652;23;20016;-83
2021/10/24 00:09:49;;;;;;;5.75;3.13;;;9.10;99.90;;;;;;6183634;23;20012;-83
2021/10/24 00:12:16;;;;;;;7.15;2.90;;;9.20;99.90;;;;;;6183818;23;20005;-83
2021/10/24 00:14:41;;;;;;;8.73;3.40;;;9.10;99.90;;;;;;6183675;23;20008;-83
2021/10/24 00:17:07;;;;;;;9.73;2.95;;;9.10;99.90;;;;;;6184107;23;20024;-83
2021/10/24 00:19:33;;;;;;;12.02;3.35;;;9.10;99.90;;;;;;6183493;23;20474;-83
2021/10/24 00:21:59;;;;;;;9.10;3.53;;;9.00;99.90;;;;;;6183573;23;20001;-83
2021/10/24 00:24:25;;;;;;;6.70;3.08;;;9.00;99.90;;;;;;6181690;23;20001;-83
2021/10/24 00:26:51;;;;;;;8.18;3.22;;;9.00;99.90;;;;;;6181697;23;20160;-83
2021/10/24 00:29:17;;;;;;;10.15;3.47;;;8.90;99.90;;;;;;6183549;23;20027;-83
2021/10/24 00:31:42;;;;;;;7.13;3.20;;;8.90;99.90;;;;;;6183794;23;20008;-83
2021/10/24 00:34:08;;;;;;;6.05;3.30;;;8.90;99.90;;;;;;6157028;23;20005;-83
2021/10/24 00:36:34;;;;;;;10.13;3.30;;;8.70;99.90;;;;;;6181996;23;20319;-83
2021/10/24 00:39:00;;;;;;;7.28;3.65;;;8.70;99.90;;;;;;6183188;23;19997;-83
2021/10/24 00:41:25;;;;;;;6.90;3.15;;;8.60;99.90;;;;;;6184082;23;20001;-83
2021/10/24 00:43:51;;;;;;;4.72;3.00;;;8.60;99.90;;;;;;6183209;23;20524;-83
2021/10/24 00:46:17;;;;;;;6.65;3.15;;;8.60;99.90;;;;;;6181730;23;20465;-83
2021/10/24 00:48:42;;;;;;;10.10;3.53;;;8.60;99.90;;;;;;6183417;23;19997;-83
2021/10/24 00:51:08;;;;;;;9.57;3.67;;;8.60;99.90;;;;;;6183819;23;20055;-83
2021/10/24 00:53:34;;;;;;;8.48;3.20;;;8.60;99.90;;;;;;6183408;23;20057;-83
2021/10/24 00:56:01;;;;;;;7.38;3.78;;;8.50;99.90;;;;;;6183245;23;20001;-83
2021/10/24 00:58:27;;;;;;;8.45;3.53;;;8.60;99.90;;;;;;6180551;23;20005;-83
2021/10/24 01:00:54;;;;;;;7.65;2.97;;;8.50;99.90;;;;;;6183120;23;20434;-83
2021/10/24 01:03:20;;;;;;;8.18;2.95;;;8.50;99.90;;;;;;6183215;23;20001;-83
2021/10/24 01:05:46;;;;;;;9.48;4.03;;;8.40;99.90;;;;;;6182673;23;20009;-83
2021/10/24 01:08:14;;;;;;;6.03;3.63;;;8.40;99.90;;;;;;6181624;23;20518;-83
2021/10/24 01:10:39;;;;;;;7.97;3.78;;;8.30;99.90;;;;;;6183490;23;19998;-83
2021/10/24 01:13:05;;;;;;;8.40;3.45;;;8.20;99.90;;;;;;6181186;23;20016;-82
2021/10/24 01:15:31;;;;;;;5.55;3.03;;;8.20;99.90;;;;;;6183105;23;20105;-83
2021/10/24 01:17:57;;;;;;;8.80;3.55;;;8.10;99.90;;;;;;6181441;23;20457;-83
2021/10/24 01:20:26;;;;;;;5.47;3.03;;;8.10;99.90;;;;;;6181405;23;20001;-83
2021/10/24 01:22:52;;;;;;;9.90;3.47;;;8.00;99.90;;;;;;6183162;23;20442;-83
2021/10/24 01:25:18;;;;;;;12.82;3.28;;;8.00;99.90;;;;;;6181118;23;20096;-83
2021/10/24 01:27:45;;;;;;;7.60;3.22;;;7.90;99.90;;;;;;6182864;23;20043;-83
2021/10/24 01:30:11;;;;;;;9.43;3.58;;;7.90;99.90;;;;;;6181260;23;20028;-83
2021/10/24 01:32:37;;;;;;;6.32;3.13;;;7.80;99.90;;;;;;6181067;23;20040;-83
2021/10/24 01:35:05;;;;;;;8.48;4.47;;;7.80;99.90;;;;;;6182308;23;20418;-83
2021/10/24 01:37:41;;;;;;;7.35;3.90;;;7.70;99.90;;;;;;6182738;23;20001;-83
2021/10/24 01:40:13;;;;;;;7.03;3.80;;;7.70;99.90;;;;;;6182845;23;20446;-83
2021/10/24 01:42:50;;;;;;;8.48;4.22;;;7.70;99.90;;;;;;6182772;23;20403;-83
2021/10/24 01:45:17;;;;;;;11.02;4.05;;;7.60;99.90;;;;;;6182707;23;20159;-83
2021/10/24 01:47:43;;;;;;;7.38;4.25;;;7.60;99.90;;;;;;6182752;23;20035;-83
2021/10/24 01:50:09;;;;;;;7.78;3.90;;;7.60;99.90;;;;;;6180810;23;20439;-83
2021/10/24 01:52:40;;;;;;;9.10;3.78;;;7.60;99.90;;;;;;6182481;23;20323;-83
2021/10/24 01:55:11;;;;;;;7.70;4.32;;;7.60;99.90;;;;;;6180869;23;20505;-83
2021/10/24 01:57:37;;;;;;;6.75;4.75;;;7.60;99.90;;;;;;6182497;23;20001;-83
2021/10/24 02:00:04;;;;;;;10.20;4.18;;;7.50;99.90;;;;;;6180830;23;20542;-83
2021/10/24 02:02:30;;;;;;;7.90;4.28;;;7.50;99.90;;;;;;6181257;23;20067;-83
2021/10/24 02:04:55;;;;;;;8.77;4.47;;;7.40;99.90;;;;;;6181187;23;20423;-83
2021/10/24 02:07:21;;;;;;;9.07;4.20;;;7.40;99.90;;;;;;6182460;23;20125;-84
2021/10/24 02:09:46;;;;;;;9.60;4.75;;;7.30;99.90;;;;;;6182231;23;20001;-83
2021/10/24 02:12:12;;;;;;;9.75;4.15;;;7.40;99.90;;;;;;6182323;23;20022;-83
2021/10/24 02:14:38;;;;;;;10.55;4.10;;;7.40;99.90;;;;;;6180174;23;20001;-83
2021/10/24 02:17:03;;;;;;;8.18;4.20;;;7.40;99.90;;;;;;6182555;23;20498;-83
2021/10/24 02:19:29;;;;;;;10.63;4.18;;;7.40;99.90;;;;;;6182728;23;20001;-83
2021/10/24 02:21:55;;;;;;;10.98;4.13;;;7.40;99.90;;;;;;6182386;23;20004;-83
2021/10/24 02:24:20;;;;;;;10.20;3.97;;;7.40;99.90;;;;;;6183055;23;20051;-82
2021/10/24 02:26:46;;;;;;;7.28;3.80;;;7.40;99.90;;;;;;6182049;23;20059;-83
2021/10/24 02:29:12;;;;;;;8.15;3.92;;;7.50;99.90;;;;;;6182093;23;20088;-83
2021/10/24 02:31:37;;;;;;;9.45;4.25;;;7.60;99.90;;;;;;6182198;23;20327;-83
2021/10/24 02:34:03;;;;;;;11.43;4.30;;;7.60;99.90;;;;;;6180607;23;20519;-83
2021/10/24 02:36:28;;;;;;;8.82;4.70;;;7.60;99.90;;;;;;6182223;23;20001;-83
2021/10/24 02:38:54;;;;;;;8.60;4.03;;;7.70;99.90;;;;;;6182111;23;20007;-83
2021/10/24 02:41:20;;;;;;;8.95;4.15;;;7.70;99.90;;;;;;6182539;23;20481;-83
2021/10/24 02:43:46;;;;;;;9.05;4.20;;;7.70;99.90;;;;;;6181927;23;20449;-83
2021/10/24 02:46:12;;;;;;;6.88;4.22;;;7.70;99.90;;;;;;6182303;23;20036;-83
2021/10/24 02:48:37;;;;;;;7.20;3.55;;;7.70;99.90;;;;;;6182106;23;20005;-83
2021/10/24 02:51:04;;;;;;;9.95;4.32;;;7.70;99.90;;;;;;6181617;23;19997;-83
2021/10/24 02:53:30;;;;;;;11.35;3.75;;;7.70;99.90;;;;;;6182065;23;20005;-83
2021/10/24 02:55:56;;;;;;;8.43;4.05;;;7.70;99.90;;;;;;6180419;23;20338;-83
2021/10/24 02:58:21;;;;;;;7.22;3.80;;;7.70;99.90;;;;;;6182092;23;20063;-83
2021/10/24 03:00:47;;;;;;;9.73;4.40;;;7.70;99.90;;;;;;6182265;23;20005;-83
2021/10/24 03:03:13;;;;;;;7.78;3.95;;;7.70;99.90;;;;;;6180258;23;20029;-83
2021/10/24 03:05:38;;;;;;;13.52;5.57;;;7.70;99.90;;;;;;6182190;23;20002;-83
2021/10/24 03:08:04;;;;;;;8.85;4.18;;;7.70;99.90;;;;;;6180120;23;20013;-83
2021/10/24 03:10:30;;;;;;;10.00;4.70;;;7.70;99.90;;;;;;6182327;23;20028;-83
2021/10/24 03:12:55;;;;;;;7.05;3.95;;;7.80;99.90;;;;;;6182440;23;20072;-83
2021/10/24 03:15:21;;;;;;;7.60;4.60;;;7.80;99.90;;;;;;6182048;23;20001;-83
2021/10/24 03:17:47;;;;;;;8.70;4.80;;;7.80;99.90;;;;;;6180864;23;20438;-83
2021/10/24 03:20:12;;;;;;;10.60;4.85;;;7.80;99.90;;;;;;6182348;23;20170;-83
2021/10/24 03:22:38;;;;;;;7.78;4.38;;;7.80;99.90;;;;;;6182193;23;20061;-83
2021/10/24 03:25:04;;;;;;;8.38;4.78;;;7.80;99.90;;;;;;6181791;23;20079;-83
2021/10/24 03:27:30;;;;;;;9.90;4.18;;;7.80;99.90;;;;;;6182746;23;20036;-83
2021/10/24 03:29:57;;;;;;;6.57;4.32;;;7.80;99.90;;;;;;6184078;23;20434;-83
2021/10/24 03:32:23;;;;;;;11.27;4.88;;;7.80;99.90;;;;;;6183825;23;20001;-83
2021/10/24 03:34:50;;;;;;;9.95;4.25;;;7.80;99.90;;;;;;6184195;23;20004;-83
2021/10/24 03:37:16;;;;;;;12.40;4.63;;;7.80;99.90;;;;;;6184012;23;20004;-83
2021/10/24 03:39:41;;;;;;;9.27;4.57;;;7.80;99.90;;;;;;6184633;23;20083;-83
2021/10/24 03:42:07;;;;;;;12.60;5.03;;;7.80;99.90;;;;;;6184045;23;20004;-83
2021/10/24 03:44:33;;;;;;;9.88;4.57;;;7.80;99.90;;;;;;6183687;23;20442;-83
2021/10/24 03:46:59;;;;;;;8.93;4.63;;;7.70;99.90;;;;;;6183744;23;20035;-83
2021/10/24 03:49:24;;;;;;;8.50;4.40;;;7.70;99.90;;;;;;6184307;23;19997;-83
2021/10/24 03:51:50;;;;;;;7.68;4.47;;;7.70;99.90;;;;;;6183795;23;20612;-83
2021/10/24 03:54:16;;;;;;;10.68;4.50;;;7.60;99.90;;;;;;6183901;23;19998;-83
2021/10/24 03:56:42;;;;;;;8.35;4.40;;;7.70;99.90;;;;;;6184152;23;20004;-83
2021/10/24 03:59:07;;;;;;;7.32;4.60;;;7.60;99.90;;;;;;6184224;23;20001;-83
2021/10/24 04:01:36;;;;;;;8.68;4.82;;;7.60;99.90;;;;;;6182184;23;20032;-83
2021/10/24 04:04:02;;;;;;;9.48;5.18;;;7.70;99.90;;;;;;6183502;23;20012;-83
2021/10/24 04:06:28;;;;;;;11.27;6.15;;;7.70;99.90;;;;;;6183824;23;20013;-83
2021/10/24 04:08:53;;;;;;;10.65;6.03;;;7.70;99.90;;;;;;6183878;23;20326;-83
2021/10/24 04:11:20;;;;;;;9.60;5.55;;;7.70;99.90;;;;;;6183990;23;20063;-83
2021/10/24 04:13:46;;;;;;;9.02;5.07;;;7.70;99.90;;;;;;6181971;23;20334;-83
2021/10/24 04:16:12;;;;;;;11.23;5.50;;;7.70;99.90;;;;;;6183524;23;20005;-83
2021/10/24 04:18:38;;;;;;;7.82;4.65;;;7.70;99.90;;;;;;6183450;23;20063;-83
2021/10/24 04:21:03;;;;;;;8.68;4.90;;;7.60;99.90;;;;;;6183336;23;20027;-83
2021/10/24 04:23:29;;;;;;;10.82;5.30;;;7.60;99.90;;;;;;6183103;23;20005;-83
2021/10/24 04:25:55;;;;;;;6.15;4.57;;;7.60;99.90;;;;;;6182687;23;20350;-83
2021/10/24 04:28:21;;;;;;;9.13;5.15;;;7.60;99.90;;;;;;6181989;23;20012;-83
2021/10/24 04:30:47;;;;;;;10.23;5.03;;;7.60;99.90;;;;;;6183649;23;20409;-83
2021/10/24 04:33:14;;;;;;;10.02;5.25;;;7.60;99.90;;;;;;6183080;23;20005;-83
2021/10/24 04:35:40;;;;;;;11.05;5.03;;;7.60;99.90;;;;;;6181768;23;20402;-83
2021/10/24 04:38:06;;;;;;;7.10;4.90;;;7.60;99.90;;;;;;6183405;23;20008;-83
2021/10/24 04:40:31;;;;;;;9.52;6.60;;;7.60;99.90;;;;;;6183589;23;20001;-83
2021/10/24 04:42:57;;;;;;;8.27;4.60;;;7.60;99.90;;;;;;6183592;23;20012;-85
2021/10/24 04:45:23;;;;;;;11.63;5.32;;;7.50;99.90;;;;;;6183216;23;20001;-83
2021/10/24 04:47:48;;;;;;;9.55;5.07;;;7.50;99.90;;;;;;6183857;23;20040;-83
2021/10/24 04:50:14;;;;;;;11.25;5.05;;;7.50;99.90;;;;;;6183451;23;19997;-83
2021/10/24 04:52:40;;;;;;;9.95;5.15;;;7.50;99.90;;;;;;6182765;23;20084;-82
2021/10/24 04:55:06;;;;;;;9.75;5.65;;;7.50;99.90;;;;;;6183250;23;20028;-82
2021/10/24 04:57:33;;;;;;;9.35;5.40;;;7.50;99.90;;;;;;6183217;23;20009;-83
2021/10/24 04:59:58;;;;;;;11.45;5.90;;;7.50;99.90;;;;;;6183296;23;20184;-83
2021/10/24 05:02:24;;;;;;;10.43;6.00;;;7.40;99.90;;;;;;6183322;23;20263;-83
2021/10/24 05:04:50;;;;;;;8.75;5.38;;;7.40;99.90;;;;;;6181825;23;20001;-83
2021/10/24 05:07:15;;;;;;;11.23;6.40;;;7.40;99.90;;;;;;6182937;23;20028;-83
2021/10/24 05:09:41;;;;;;;11.57;6.10;;;7.40;99.90;;;;;;6183180;23;20036;-83
2021/10/24 05:12:07;;;;;;;9.88;6.15;;;7.40;99.90;;;;;;6181333;23;20031;-83
2021/10/24 05:14:32;;;;;;;12.40;6.57;;;7.30;99.90;;;;;;6182803;23;20017;-83
2021/10/24 05:16:58;;;;;;;13.85;6.63;;;7.30;99.90;;;;;;6181421;23;20078;-83
2021/10/24 05:19:24;;;;;;;13.35;6.18;;;7.30;99.90;;;;;;6183150;23;20005;-83
2021/10/24 05:21:50;;;;;;;8.93;6.20;;;7.40;99.90;;;;;;6183119;23;20565;-83
2021/10/24 05:24:15;;;;;;;8.60;6.30;;;7.30;99.90;;;;;;6182516;23;20012;-83
2021/10/24 05:26:41;;;;;;;14.48;6.38;;;7.40;99.90;;;;;;6182674;23;20017;-83
2021/10/24 05:29:07;;;;;;;12.68;6.45;;;7.40;99.90;;;;;;6182759;23;20001;-83
2021/10/24 05:31:33;;;;;;;14.57;7.40;;;7.40;99.90;;;;;;6182665;23;20011;-83
2021/10/24 05:33:58;;;;;;;14.35;8.43;;;7.50;99.90;;;;;;6183156;23;20001;-83
2021/10/24 05:36:24;;;;;;;12.23;7.47;;;7.50;99.90;;;;;;6182982;23;20001;-83
2021/10/24 05:38:50;;;;;;;12.43;6.60;;;7.50;99.90;;;;;;6182958;23;19999;-83
2021/10/24 05:41:16;;;;;;;10.23;6.28;;;7.50;99.90;;;;;;6182941;23;20037;-83
2021/10/24 05:43:42;;;;;;;10.00;5.70;;;7.40;99.90;;;;;;6182854;23;20317;-83
2021/10/24 05:46:08;;;;;;;12.15;6.72;;;7.40;99.90;;;;;;6183247;23;20008;-83
2021/10/24 05:48:34;;;;;;;11.95;6.88;;;7.40;99.90;;;;;;6183238;23;20005;-83
2021/10/24 05:51:00;;;;;;;12.05;7.13;;;7.40;99.90;;;;;;6182563;23;20061;-83
2021/10/24 05:53:26;;;;;;;13.38;6.93;;;7.30;99.90;;;;;;6181382;23;20044;-83
2021/10/24 05:55:51;;;;;;;11.20;6.05;;;7.30;99.90;;;;;;6182926;23;20405;-83
2021/10/24 05:58:17;;;;;;;12.82;6.30;;;7.30;99.90;;;;;;6180949;23;20005;-83
2021/10/24 06:00:43;;;;;;;10.38;6.03;;;7.30;99.90;;;;;;6181288;23;20087;-83
2021/10/24 06:03:08;;;;;;;11.85;6.60;;;7.30;99.90;;;;;;6183051;23;20033;-83
2021/10/24 06:05:35;;;;;;;9.55;7.13;;;7.30;99.90;;;;;;6182606;23;20382;-85
2021/10/24 06:08:02;;;;;;;9.55;6.70;;;7.20;99.90;;;;;;6182892;23;20001;-83
2021/10/24 06:10:32;;;;;;;9.88;6.60;;;7.20;99.90;;;;;;6181152;23;20005;-83
2021/10/24 06:12:58;;;;;;;12.20;6.53;;;7.20;99.90;;;;;;6182419;23;20434;-83
2021/10/24 06:15:25;;;;;;;12.48;7.15;;;7.20;99.90;;;;;;6182891;23;20001;-83
2021/10/24 06:17:51;;;;;;;13.27;7.13;;;7.20;99.90;;;;;;6182782;23;20479;-83
2021/10/24 06:20:18;;;;;;;11.73;6.88;;;7.20;99.90;;;;;;6182706;23;20434;-83
2021/10/24 06:22:44;;;;;;;11.98;6.90;;;7.10;99.90;;;;;;6182481;23;20334;-83
2021/10/24 06:25:14;;;;;;;13.15;6.72;;;7.10;99.90;;;;;;6182186;23;20100;-83
2021/10/24 06:27:41;;;;;;;9.13;6.60;;;7.10;99.90;;;;;;6182313;23;20017;-83
2021/10/24 06:30:09;;;;;;;11.07;6.28;;;7.10;99.90;;;;;;6182426;23;19997;-83
2021/10/24 06:32:35;;;;;;;10.45;6.10;;;7.10;99.90;;;;;;6180976;23;20009;-83
2021/10/24 06:35:01;;;;;;;13.30;6.65;;;7.10;99.90;;;;;;6182539;23;20001;-83
2021/10/24 06:37:28;;;;;;;10.00;6.45;;;7.00;99.90;;;;;;6180673;23;20015;-83
2021/10/24 06:39:54;;;;;;;13.68;6.63;;;7.10;99.90;;;;;;6182422;23;20482;-83
2021/10/24 06:42:20;;;;;;;13.32;6.80;;;7.10;99.90;;;;;;6182212;23;20043;-82
2021/10/24 06:44:46;;;;;;;12.13;6.72;;;7.20;99.90;;;;;;6181374;23;20080;-83
2021/10/24 06:47:11;;;;;;;12.02;6.70;;;7.20;99.90;;;;;;6182275;23;20067;-83
2021/10/24 06:49:37;;;;;;;12.02;7.35;;;7.20;99.90;;;;;;6182570;23;20306;-83
2021/10/24 06:52:05;;;;;;;12.70;7.07;;;7.20;99.90;;;;;;6182509;23;20342;-85
2021/10/24 06:54:32;;;;;;;13.10;7.28;;;7.20;99.90;;;;;;6180702;23;20005;-83
2021/10/24 06:56:58;;;;;;;9.50;6.53;;;7.20;99.90;;;;;;6182822;23;20474;-82
2021/10/24 06:59:24;;;;;;;14.20;7.80;;;7.20;99.90;;;;;;6182083;23;20040;-83
2021/10/24 07:01:50;;;;;;;12.10;7.05;;;7.20;99.90;;;;;;6181877;23;20382;-83
2021/10/24 07:04:15;;;;;;;14.23;7.95;;;7.30;99.90;;;;;;6182367;23;20075;-83
2021/10/24 07:06:41;;;;;;;13.45;9.73;;;7.30;99.90;;;;;;6180483;23;20055;-83
2021/10/24 07:09:07;;;;;;;14.32;9.27;;;7.40;99.90;;;;;;6180805;23;20442;-83
2021/10/24 07:11:32;;;;;;;10.65;7.20;;;7.50;99.90;;;;;;6182345;23;20001;-83
2021/10/24 07:13:58;;;;;;;9.60;6.82;;;7.40;99.90;;;;;;6182130;23;19997;-85
2021/10/24 07:16:24;;;;;;;12.73;7.10;;;7.40;99.90;;;;;;6182335;23;20072;-85
2021/10/24 07:18:49;;;;;;;14.10;7.13;;;7.40;99.90;;;;;;6180506;23;20343;-86
2021/10/24 07:21:15;;;;;;;9.27;6.03;;;7.40;99.90;;;;;;6180514;23;20342;-85
2021/10/24 07:23:41;;;;;;;14.88;6.25;;;7.50;99.90;;;;;;6182253;23;20076;-85
2021/10/24 07:26:06;;;;;;;12.32;7.00;;;7.70;99.90;;;;;;6181828;23;20047;-85
2021/10/24 07:28:32;;;;;;;12.95;6.80;;;7.70;99.90;;;;;;6182086;23;20009;-85
2021/10/24 07:30:58;;;;;;;8.27;5.85;;;7.80;99.90;;;;;;6182261;23;20003;-85
2021/10/24 07:33:24;;;;;;;11.73;6.55;;;7.80;99.90;;;;;;6182260;23;20419;-85
2021/10/24 07:35:49;;;;;;;11.25;6.20;;;7.80;99.90;;;;;;6182094;23;20262;-85
2021/10/24 07:38:16;;;;;;;13.80;6.45;;;7.80;99.90;;;;;;6182029;23;20397;-85
2021/10/24 07:40:49;;;;;;;11.50;6.63;;;7.80;99.90;;;;;;6182071;23;20005;-85
2021/10/24 07:43:19;;;;;;;10.35;5.68;;;7.90;99.90;;;;;;6182332;23;20036;-86
2021/10/24 07:45:49;;;;;;;8.77;5.82;;;8.10;99.90;;;;;;6180070;23;20012;-86
2021/10/24 07:48:20;;;;;;;8.43;5.90;;;8.10;99.90;;;;;;6180588;23;20075;-86
2021/10/24 07:50:47;;;;;;;11.77;6.97;;;8.20;99.90;;;;;;6181909;23;20320;-86
2021/10/24 07:53:16;;;;;;;12.55;6.65;;;8.30;99.90;;;;;;6180820;23;20446;-86
2021/10/24 07:55:43;;;;;;;13.68;7.82;;;8.50;99.90;;;;;;6181945;23;20021;-86
2021/10/24 07:58:09;;;;;;;7.60;5.75;;;8.60;99.90;;;;;;6181788;23;20430;-86
2021/10/24 08:00:35;;;;;;;11.38;6.38;;;8.70;99.90;;;;;;6182056;23;20024;-86
2021/10/24 08:03:08;;;;;;;11.80;6.22;;;8.80;99.90;;;;;;6155646;23;20024;-86
2021/10/24 08:05:34;;;;;;;7.75;5.70;;;8.80;99.90;;;;;;6182270;23;20001;-86
2021/10/24 08:08:00;;;;;;;7.93;5.78;;;8.90;99.90;;;;;;6181818;23;20092;-86
2021/10/24 08:10:27;;;;;;;12.70;5.50;;;9.00;99.90;;;;;;6182122;23;20064;-86
2021/10/24 08:12:53;;;;;;;11.07;5.32;;;9.10;99.90;;;;;;6181948;23;20005;-86
2021/10/24 08:15:19;;;;;;;9.10;5.65;;;9.10;99.90;;;;;;6183699;23;20334;-86
2021/10/24 08:17:48;;;;;;;8.52;5.28;;;9.20;99.90;;;;;;6183826;23;20007;-86
2021/10/24 08:20:14;;;;;;;9.80;5.75;;;9.30;99.90;;;;;;6183804;23;20086;-86
2021/10/24 08:22:40;;;;;;;9.88;6.32;;;9.50;99.90;;;;;;6183972;23;20059;-86
2021/10/24 08:25:07;;;;;;;9.90;5.53;;;9.70;99.90;;;;;;6181939;23;20017;-86
2021/10/24 08:27:33;;;;;;;10.05;5.38;;;9.80;99.90;;;;;;6183574;23;20096;-85
2021/10/24 08:30:01;;;;;;;8.38;5.00;;;9.90;99.90;;;;;;6183312;23;20072;-86
2021/10/24 08:32:26;;;;;;;10.38;5.22;;;10.10;99.90;;;;;;6182986;23;20076;-86
2021/10/24 08:34:52;;;;;;;7.30;4.90;;;10.20;99.90;;;;;;6183533;23;20033;-86
2021/10/24 08:37:19;;;;;;;6.88;5.32;;;10.30;99.90;;;;;;6183649;23;20012;-86
2021/10/24 08:39:52;;;;;;;8.45;5.00;;;10.50;99.90;;;;;;6183651;23;20008;-86
2021/10/24 08:42:27;;;;;;;7.75;4.90;;;10.60;99.90;;;;;;6183706;23;20085;-86
2021/10/24 08:44:57;;;;;;;8.73;4.80;;;10.60;99.90;;;;;;6183608;23;20521;-86
2021/10/24 08:47:24;;;;;;;8.30;4.70;;;10.40;99.90;;;;;;6183289;23;20039;-86
2021/10/24 08:49:50;;;;;;;9.57;4.70;;;10.50;99.90;;;;;;6181752;23;20039;-86
2021/10/24 08:52:25;;;;;;;8.48;4.82;;;10.60;99.90;;;;;;6183743;23;20005;-86
2021/10/24 08:54:53;;;;;;;9.32;4.88;;;10.70;99.90;;;;;;6183434;23;20001;-86
2021/10/24 08:57:27;;;;;;;7.82;4.00;;;10.90;99.90;;;;;;6181846;23;20005;-86
2021/10/24 08:59:54;;;;;;;10.00;4.72;;;11.00;99.90;;;;;;6183660;23;20055;-86
2021/10/24 09:02:19;;;;;;;6.53;3.72;;;11.10;99.90;;;;;;6183607;23;20409;-85
2021/10/24 09:04:50;;;;;;;9.70;4.53;;;11.20;99.90;;;;;;6183458;23;20001;-85
2021/10/24 09:07:16;;;;;;;7.20;4.22;;;11.20;99.90;;;;;;6183262;23;20008;-86
2021/10/24 09:09:42;;;;;;;5.18;3.97;;;11.20;99.90;;;;;;6183308;23;19997;-86
2021/10/24 09:12:10;;;;;;;7.30;4.05;;;11.30;99.90;;;;;;6181504;23;20009;-86
2021/10/24 09:14:48;;;;;;;7.68;4.20;;;11.40;99.90;;;;;;6181879;23;20005;-86
2021/10/24 09:17:14;;;;;;;9.23;4.18;;;11.80;99.90;;;;;;6183768;23;20374;-86
2021/10/24 09:19:41;;;;;;;6.05;3.53;;;12.10;99.90;;;;;;6183382;23;20044;-86
2021/10/24 09:22:30;;;;;;;7.32;3.80;;;12.40;99.90;;;;;;6183423;23;20005;-87
2021/10/24 09:25:07;;;;;;;7.72;4.50;;;12.50;99.90;;;;;;6180777;23;20240;-85
2021/10/24 09:27:55;;;;;;;8.13;4.45;;;12.60;99.90;;;;;;6181124;23;20048;-85
2021/10/24 09:30:33;;;;;;;9.23;3.83;;;12.70;99.90;;;;;;6181281;23;20052;-86
2021/10/24 09:33:04;;;;;;;5.65;3.63;;;12.90;99.90;;;;;;6183193;23;20469;-85
2021/10/24 09:35:35;;;;;;;8.20;4.20;;;13.10;99.90;;;;;;6183050;23;20035;-86
2021/10/24 09:38:03;;;;;;;8.25;3.95;;;13.30;99.90;;;;;;6183472;23;20434;-86
2021/10/24 09:40:32;;;;;;;9.02;3.67;;;13.50;99.90;;;;;;6182923;23;20011;-85
2021/10/24 09:43:18;;;;;;;6.53;3.38;;;13.50;99.90;;;;;;6181089;23;20005;-86
2021/10/24 09:45:46;;;;;;;6.55;3.83;;;13.40;99.90;;;;;;6182730;23;20026;-85
2021/10/24 09:48:16;;;;;;;6.25;4.00;;;13.60;99.90;;;;;;6181288;23;20460;-86
2021/10/24 09:50:50;;;;;;;11.30;3.92;;;13.80;99.90;;;;;;6181177;23;20073;-86
2021/10/24 09:53:25;;;;;;;7.22;3.72;;;13.90;99.90;;;;;;6181502;23;20193;-86
2021/10/24 09:55:54;;;;;;;8.38;4.10;;;13.90;99.90;;;;;;6181174;23;20005;-86
2021/10/24 09:58:27;;;;;;;6.97;3.65;;;14.00;99.90;;;;;;6181035;23;20083;-86
2021/10/24 10:00:53;;;;;;;5.75;3.58;;;13.90;99.90;;;;;;6182842;23;20059;-87
2021/10/24 10:03:20;;;;;;;6.32;2.88;;;13.90;99.90;;;;;;6180898;23;20502;-86
2021/10/24 10:05:46;;;;;;;5.53;2.83;;;13.90;99.90;;;;;;6180852;23;20005;-86
2021/10/24 10:08:12;;;;;;;6.75;3.50;;;13.90;99.90;;;;;;6183018;23;20001;-85
2021/10/24 10:11:04;;;;;;;6.53;3.03;;;13.90;99.90;;;;;;6182830;23;20025;-85
2021/10/24 10:13:33;;;;;;;5.43;3.05;;;13.80;99.90;;;;;;6125271;23;20011;-85
2021/10/24 10:16:17;;;;;;;7.97;3.10;;;13.80;99.90;;;;;;6182685;23;20008;-85
2021/10/24 10:19:10;;;;;;;6.93;3.80;;;13.90;99.90;;;;;;6182614;23;20449;-86
2021/10/24 10:21:41;;;;;;;5.82;3.20;;;14.00;99.90;;;;;;6177498;23;20080;-86
2021/10/24 10:24:27;;;;;;;5.07;3.05;;;14.10;99.90;;;;;;6180891;23;20406;-85
2021/10/24 10:26:54;;;;;;;7.97;2.97;;;14.20;99.90;;;;;;6182279;23;20039;-86
2021/10/24 10:29:53;;;;;;;7.97;3.15;;;14.30;99.90;;;;;;6180925;23;20029;-85
2021/10/24 10:32:20;;;;;;;4.90;2.67;;;14.30;99.90;;;;;;6182627;23;20004;-85
2021/10/24 10:34:58;;;;;;;6.70;3.05;;;14.40;99.90;;;;;;6182310;23;20001;-85
2021/10/24 10:37:52;;;;;;;5.55;2.92;;;14.50;99.90;;;;;;6182411;23;20033;-85
2021/10/24 10:40:32;;;;;;;4.87;2.97;;;14.50;99.90;;;;;;6180770;23;20012;-86
2021/10/24 10:43:11;;;;;;;4.13;2.83;;;14.50;99.90;;;;;;6182231;23;20424;-86
2021/10/24 10:45:41;;;;;;;5.75;3.28;;;14.60;99.90;;;;;;6182554;23;20005;-85
2021/10/24 10:48:25;;;;;;;8.18;3.65;;;14.80;99.90;;;;;;6182319;23;20017;-86
2021/10/24 10:51:03;;;;;;;6.88;4.00;;;14.90;99.90;;;;;;6182648;23;20331;-85
2021/10/24 10:53:32;;;;;;;10.35;3.85;;;14.90;99.90;;;;;;6182469;23;20334;-86
2021/10/24 10:56:01;;;;;;;7.93;3.58;;;15.00;99.90;;;;;;6180533;23;20005;-85
2021/10/24 10:58:32;;;;;;;7.93;3.33;;;15.20;99.90;;;;;;6180501;23;20009;-84
2021/10/24 11:00:58;;;;;;;6.93;3.40;;;15.40;99.90;;;;;;6182229;23;19998;-85
2021/10/24 11:03:44;;;;;;;8.43;3.00;;;15.60;99.90;;;;;;6182261;23;20012;-88
2021/10/24 11:06:11;;;;;;;4.75;2.72;;;15.60;99.90;;;;;;6180990;23;20005;-88
2021/10/24 11:08:49;;;;;;;6.68;3.13;;;15.50;99.90;;;;;;6182463;23;20184;-88
2021/10/24 11:11:39;;;;;;;6.70;2.60;;;15.70;99.90;;;;;;6182216;23;20001;-88
2021/10/24 11:14:11;;;;;;;8.02;3.17;;;15.80;99.90;;;;;;6182013;23;20001;-89
2021/10/24 11:16:43;;;;;;;8.85;4.00;;;15.80;99.90;;;;;;6180643;23;20257;-88
2021/10/24 11:19:30;;;;;;;4.78;2.17;;;15.80;99.90;;;;;;6180231;23;20414;-88
2021/10/24 11:22:09;;;;;;;5.43;2.72;;;16.00;99.90;;;;;;6182438;23;20005;-87
2021/10/24 11:24:50;;;;;;;7.15;3.50;;;16.20;99.90;;;;;;6181123;23;20006;-88
2021/10/24 11:27:22;;;;;;;5.68;2.70;;;16.20;99.90;;;;;;6181808;23;20458;-88
2021/10/24 11:29:58;;;;;;;8.15;3.28;;;16.20;99.90;;;;;;6182557;23;20006;-88
2021/10/24 11:32:30;;;;;;;7.15;2.60;;;16.20;99.90;;;;;;6180479;23;20081;-88
2021/10/24 11:34:57;;;;;;;6.30;2.03;;;16.30;99.90;;;;;;6182098;23;20569;-88
2021/10/24 11:37:35;;;;;;;5.60;2.15;;;16.40;99.90;;;;;;6180340;23;20172;-88
2021/10/24 11:40:09;;;;;;;4.25;2.40;;;16.30;99.90;;;;;;6180590;23;20009;-88
2021/10/24 11:42:36;;;;;;;4.43;2.25;;;16.10;99.90;;;;;;6180903;23;20009;-87
2021/10/24 11:45:22;;;;;;;4.63;2.10;;;16.00;99.90;;;;;;6181995;23;20001;-88
2021/10/24 11:48:15;;;;;;;5.93;2.38;;;16.30;99.90;;;;;;6180612;23;20425;-88
2021/10/24 11:50:49;;;;;;;3.05;1.85;;;16.40;99.90;;;;;;6182451;23;20012;-88
2021/10/24 11:53:23;;;;;;;8.00;2.08;;;16.40;99.90;;;;;;6184090;23;20411;-86
2021/10/24 11:55:51;;;;;;;5.25;1.90;;;16.50;99.90;;;;;;6184689;23;20005;-87
2021/10/24 11:58:36;;;;;;;6.22;1.95;;;16.40;99.90;;;;;;6184677;23;20009;-88
2021/10/24 12:01:13;;;;;;;4.07;1.85;;;16.40;99.90;;;;;;6184187;23;20172;-88
2021/10/24 12:03:41;;;;;;;5.05;1.63;;;16.60;99.90;;;;;;6183621;23;20080;-88
2021/10/24 12:06:09;;;;;;;3.60;1.70;;;16.70;99.90;;;;;;6184001;23;20012;-87
2021/10/24 12:09:05;;;;;;;5.38;1.63;;;16.80;99.90;;;;;;6182048;23;20009;-86
2021/10/24 12:11:45;;;;;;;4.45;2.22;;;16.90;99.90;;;;;;6181452;23;20009;-88
2021/10/24 12:14:14;;;;;;;3.42;1.80;;;16.90;99.90;;;;;;6183927;23;20020;-88
2021/10/24 12:16:43;;;;;;;4.22;1.90;;;17.00;99.90;;;;;;6184114;23;20516;-88
2021/10/24 12:19:16;;;;;;;4.65;2.08;;;17.00;99.90;;;;;;6182176;23;20005;-87
2021/10/24 12:22:14;;;;;;;3.05;1.65;;;17.20;99.90;;;;;;6183956;23;20484;-88
2021/10/24 12:24:43;;;;;;;6.90;1.60;;;17.40;99.90;;;;;;6118127;23;20015;-87
2021/10/24 12:27:36;;;;;;;3.55;1.52;;;17.40;99.90;;;;;;6183599;23;20009;-88
2021/10/24 12:30:12;;;;;;;3.85;1.42;;;17.50;99.90;;;;;;6183627;23;20079;-89
2021/10/24 12:32:54;;;;;;;5.80;2.15;;;17.60;99.90;;;;;;6183812;23;20001;-89
2021/10/24 12:35:19;;;;;;;4.00;1.85;;;17.80;99.90;;;;;;6183759;23;20093;-89
2021/10/24 12:37:55;;;;;;;2.72;1.40;;;17.70;99.90;;;;;;6181870;23;20450;-87
2021/10/24 12:40:32;;;;;;;5.10;1.25;;;17.70;99.90;;;;;;6183799;23;19997;-88
2021/10/24 12:43:24;;;;;;;2.67;1.60;;;17.80;99.90;;;;;;6183639;23;20028;-87
2021/10/24 12:45:52;;;;;;;4.30;1.40;;;18.10;99.90;;;;;;6177891;23;20253;-88
2021/10/24 12:48:38;;;;;;;4.88;1.20;;;18.10;99.90;;;;;;6181709;23;20012;-88
2021/10/24 12:51:23;;;;;;;3.17;1.48;;;18.00;99.90;;;;;;6183601;23;19997;-88
2021/10/24 12:53:49;;;;;;;3.00;1.27;;;18.10;99.90;;;;;;6183551;23;20001;-88
2021/10/24 12:56:15;;;;;;;2.33;1.33;;;18.00;99.90;;;;;;6181697;23;20319;-88
2021/10/24 12:58:41;;;;;;;2.75;1.45;;;18.10;99.90;;;;;;6181944;23;20048;-88